Norwalk, WI (54648)

11:20 PM CST on January 31, 2015 (GMT -0600)
KWIONTAR2 | Change Station
CLOSE
Current Station
Personal Weather Station
Location: Ontario, WI
Elevation: 938 ft
Nearby Weather Stations

Elev 938 ft 43.72 °N, 90.59 °W | Updated 8 seconds ago

Snow
Snow
25.6 °F
Feels Like 20 °F
N
5.0
Wind Variable Wind from ENE
Gusts 5.0 mph

Today
High -- | Low -- °F
--% Chance of Precip.
Yesterday
High -- | Low -- °F
Precip. -- in
7:20 AM 5:11 PM
Waxing Gibbous, 93% visible
Pressure 30.18 in
Visibility 10.0 miles
Clouds Overcast 2500 ft
Windchill 20 °F
Dew Point 24 °F
Humidity 92%
Rainfall 0.04 in
Snow Depth Not available.
UV 0.0 out of 12
Pollen .10 out of 12
Air Quality Not available.
Flu Activity Not available.
METAR KCMY 010455Z AUTO 07008KT 10SM OVC025 M03/M07 A3018 RMK AO2 T10261066

More Conditions Fewer Conditions

Pressure 30.18 in
Visibility 10.0 miles
Clouds Overcast 2500 ft
Windchill 20 °F
Dew Point 24 °F
Humidity 92%
Rainfall 0.04 in
Snow Depth Not available.
UV 0.0 out of 12
Pollen .10 out of 12
Air Quality Not available.
Flu Activity Not available.
METAR KCMY 010455Z AUTO 07008KT 10SM OVC025 M03/M07 A3018 RMK AO2 T10261066

More Conditions Fewer Conditions

10-Day Weather Forecast

Almanac

Astronomy

Jan. 31, 2015 Rise Set
Actual Time
Civil Twilight
Nautical Twilight
Astronomical Twilight
Moon
Length of Visible Light
Length of Day
Tomorrow will be .
, % of the Moon is Illuminated

Today's Extremes

State Highs State Lows

Community

WunderPhotos

Upload Photos

1,792,314 photos uploaded!

WunderBlogs® & News

Nearby

Air Quality

  Air Quality AQ Index Pollutant
Not available.

Snow Depth

Station Depth Elevation

Earthquake Activity

City Distance Mag. Time & Date
Minimum magnitude displayed is 2.5.

Coastal Water Temperatures

Place Temperature

Nearby Weather Stations